sensor_id;sensor_type;location;lat;lon;timestamp;P1;durP1;ratioP1;P2;durP2;ratioP2
56075;SDS011;41951;49.022;12.066;2023-05-07T00:02:02;8.02;;;4.20;;
56075;SDS011;41951;49.022;12.066;2023-05-07T00:04:28;5.32;;;3.75;;
56075;SDS011;41951;49.022;12.066;2023-05-07T00:07:00;7.72;;;4.65;;
56075;SDS011;41951;49.022;12.066;2023-05-07T00:09:26;10.90;;;4.35;;
56075;SDS011;41951;49.022;12.066;2023-05-07T00:11:52;7.35;;;4.72;;
56075;SDS011;41951;49.022;12.066;2023-05-07T00:14:17;8.63;;;4.70;;
56075;SDS011;41951;49.022;12.066;2023-05-07T00:16:43;7.13;;;4.07;;
56075;SDS011;41951;49.022;12.066;2023-05-07T00:19:09;7.68;;;4.30;;
56075;SDS011;41951;49.022;12.066;2023-05-07T00:21:34;7.85;;;4.60;;
56075;SDS011;41951;49.022;12.066;2023-05-07T00:24:00;6.82;;;4.55;;
56075;SDS011;41951;49.022;12.066;2023-05-07T00:26:26;6.82;;;4.10;;
56075;SDS011;41951;49.022;12.066;2023-05-07T00:28:52;8.25;;;4.57;;
56075;SDS011;41951;49.022;12.066;2023-05-07T00:31:17;6.30;;;3.95;;
56075;SDS011;41951;49.022;12.066;2023-05-07T00:33:43;6.40;;;3.97;;
56075;SDS011;41951;49.022;12.066;2023-05-07T00:36:08;7.15;;;4.15;;
56075;SDS011;41951;49.022;12.066;2023-05-07T00:38:34;8.10;;;4.85;;
56075;SDS011;41951;49.022;12.066;2023-05-07T00:41:00;14.75;;;4.63;;
56075;SDS011;41951;49.022;12.066;2023-05-07T00:43:27;7.22;;;4.70;;
56075;SDS011;41951;49.022;12.066;2023-05-07T00:45:52;7.80;;;4.03;;
56075;SDS011;41951;49.022;12.066;2023-05-07T00:48:18;8.77;;;3.83;;
56075;SDS011;41951;49.022;12.066;2023-05-07T00:50:44;6.60;;;3.80;;
56075;SDS011;41951;49.022;12.066;2023-05-07T00:53:10;7.47;;;3.97;;
56075;SDS011;41951;49.022;12.066;2023-05-07T00:55:36;5.65;;;4.07;;
56075;SDS011;41951;49.022;12.066;2023-05-07T00:58:02;5.57;;;3.85;;
56075;SDS011;41951;49.022;12.066;2023-05-07T01:00:28;6.88;;;3.92;;
56075;SDS011;41951;49.022;12.066;2023-05-07T01:02:59;5.93;;;3.92;;
56075;SDS011;41951;49.022;12.066;2023-05-07T01:05:28;6.95;;;3.58;;
56075;SDS011;41951;49.022;12.066;2023-05-07T01:07:55;6.47;;;3.65;;
56075;SDS011;41951;49.022;12.066;2023-05-07T01:10:22;6.30;;;4.05;;
56075;SDS011;41951;49.022;12.066;2023-05-07T01:12:51;6.55;;;3.58;;
56075;SDS011;41951;49.022;12.066;2023-05-07T01:15:18;6.65;;;3.80;;
56075;SDS011;41951;49.022;12.066;2023-05-07T01:17:44;7.72;;;3.60;;
56075;SDS011;41951;49.022;12.066;2023-05-07T01:20:12;4.80;;;3.78;;
56075;SDS011;41951;49.022;12.066;2023-05-07T01:22:39;5.78;;;4.25;;
56075;SDS011;41951;49.022;12.066;2023-05-07T01:25:05;6.53;;;3.85;;
56075;SDS011;41951;49.022;12.066;2023-05-07T01:27:32;7.68;;;3.72;;
56075;SDS011;41951;49.022;12.066;2023-05-07T01:29:58;7.82;;;3.95;;
56075;SDS011;41951;49.022;12.066;2023-05-07T01:32:29;7.30;;;3.92;;
56075;SDS011;41951;49.022;12.066;2023-05-07T01:35:00;10.48;;;4.18;;
56075;SDS011;41951;49.022;12.066;2023-05-07T01:37:30;7.15;;;3.92;;
56075;SDS011;41951;49.022;12.066;2023-05-07T01:39:55;5.35;;;3.63;;
56075;SDS011;41951;49.022;12.066;2023-05-07T01:42:21;6.55;;;3.80;;
56075;SDS011;41951;49.022;12.066;2023-05-07T01:44:47;8.60;;;3.33;;
56075;SDS011;41951;49.022;12.066;2023-05-07T01:47:13;8.02;;;4.03;;
56075;SDS011;41951;49.022;12.066;2023-05-07T01:49:39;6.25;;;3.60;;
56075;SDS011;41951;49.022;12.066;2023-05-07T01:52:05;7.53;;;3.80;;
56075;SDS011;41951;49.022;12.066;2023-05-07T01:54:31;4.63;;;3.40;;
56075;SDS011;41951;49.022;12.066;2023-05-07T01:56:57;5.53;;;3.60;;
56075;SDS011;41951;49.022;12.066;2023-05-07T01:59:22;5.30;;;3.67;;
56075;SDS011;41951;49.022;12.066;2023-05-07T02:01:48;6.70;;;4.03;;
56075;SDS011;41951;49.022;12.066;2023-05-07T02:04:14;4.95;;;3.63;;
56075;SDS011;41951;49.022;12.066;2023-05-07T02:06:39;6.20;;;4.00;;
56075;SDS011;41951;49.022;12.066;2023-05-07T02:09:05;7.38;;;4.20;;
56075;SDS011;41951;49.022;12.066;2023-05-07T02:11:31;6.82;;;3.70;;
56075;SDS011;41951;49.022;12.066;2023-05-07T02:13:56;5.65;;;4.07;;
56075;SDS011;41951;49.022;12.066;2023-05-07T02:16:22;8.88;;;4.18;;
56075;SDS011;41951;49.022;12.066;2023-05-07T02:18:48;6.43;;;4.03;;
56075;SDS011;41951;49.022;12.066;2023-05-07T02:21:14;6.57;;;4.28;;
56075;SDS011;41951;49.022;12.066;2023-05-07T02:23:40;9.20;;;5.35;;
56075;SDS011;41951;49.022;12.066;2023-05-07T02:26:06;6.65;;;4.40;;
56075;SDS011;41951;49.022;12.066;2023-05-07T02:28:31;9.93;;;4.80;;
56075;SDS011;41951;49.022;12.066;2023-05-07T02:30:58;7.65;;;4.68;;
56075;SDS011;41951;49.022;12.066;2023-05-07T02:33:25;7.63;;;4.72;;
56075;SDS011;41951;49.022;12.066;2023-05-07T02:35:51;5.80;;;4.00;;
56075;SDS011;41951;49.022;12.066;2023-05-07T02:38:17;7.07;;;4.40;;
56075;SDS011;41951;49.022;12.066;2023-05-07T02:40:42;16.60;;;10.45;;
56075;SDS011;41951;49.022;12.066;2023-05-07T02:43:08;10.48;;;6.57;;
56075;SDS011;41951;49.022;12.066;2023-05-07T02:45:34;11.52;;;7.00;;
56075;SDS011;41951;49.022;12.066;2023-05-07T02:48:01;7.00;;;5.22;;
56075;SDS011;41951;49.022;12.066;2023-05-07T02:50:26;7.63;;;5.13;;
56075;SDS011;41951;49.022;12.066;2023-05-07T02:52:52;6.25;;;4.88;;
56075;SDS011;41951;49.022;12.066;2023-05-07T02:55:17;6.88;;;5.28;;
56075;SDS011;41951;49.022;12.066;2023-05-07T02:57:43;8.93;;;5.57;;
56075;SDS011;41951;49.022;12.066;2023-05-07T03:00:12;6.60;;;5.20;;
56075;SDS011;41951;49.022;12.066;2023-05-07T03:02:39;7.97;;;4.95;;
56075;SDS011;41951;49.022;12.066;2023-05-07T03:05:05;6.35;;;4.35;;
56075;SDS011;41951;49.022;12.066;2023-05-07T03:07:31;6.18;;;4.45;;
56075;SDS011;41951;49.022;12.066;2023-05-07T03:09:57;8.68;;;4.63;;
56075;SDS011;41951;49.022;12.066;2023-05-07T03:12:23;7.35;;;5.13;;
56075;SDS011;41951;49.022;12.066;2023-05-07T03:14:48;6.40;;;4.57;;
56075;SDS011;41951;49.022;12.066;2023-05-07T03:17:14;8.57;;;5.45;;
56075;SDS011;41951;49.022;12.066;2023-05-07T03:19:41;6.43;;;4.65;;
56075;SDS011;41951;49.022;12.066;2023-05-07T03:22:06;6.47;;;4.95;;
56075;SDS011;41951;49.022;12.066;2023-05-07T03:24:32;9.05;;;6.00;;
56075;SDS011;41951;49.022;12.066;2023-05-07T03:26:57;10.50;;;5.55;;
56075;SDS011;41951;49.022;12.066;2023-05-07T03:29:23;9.80;;;4.90;;
56075;SDS011;41951;49.022;12.066;2023-05-07T03:31:48;9.85;;;5.68;;
56075;SDS011;41951;49.022;12.066;2023-05-07T03:34:14;6.95;;;5.32;;
56075;SDS011;41951;49.022;12.066;2023-05-07T03:36:41;8.23;;;5.50;;
56075;SDS011;41951;49.022;12.066;2023-05-07T03:39:07;10.25;;;6.38;;
56075;SDS011;41951;49.022;12.066;2023-05-07T03:41:33;8.43;;;5.80;;
56075;SDS011;41951;49.022;12.066;2023-05-07T03:43:58;8.13;;;5.93;;
56075;SDS011;41951;49.022;12.066;2023-05-07T03:46:24;11.07;;;4.95;;
56075;SDS011;41951;49.022;12.066;2023-05-07T03:48:51;11.35;;;6.07;;
56075;SDS011;41951;49.022;12.066;2023-05-07T03:51:16;7.25;;;5.70;;
56075;SDS011;41951;49.022;12.066;2023-05-07T03:53:42;8.32;;;5.90;;
56075;SDS011;41951;49.022;12.066;2023-05-07T03:56:07;7.72;;;5.50;;
56075;SDS011;41951;49.022;12.066;2023-05-07T03:58:33;9.02;;;6.30;;
56075;SDS011;41951;49.022;12.066;2023-05-07T04:00:59;7.40;;;5.75;;
56075;SDS011;41951;49.022;12.066;2023-05-07T04:03:25;9.20;;;5.97;;
56075;SDS011;41951;49.022;12.066;2023-05-07T04:05:50;10.15;;;6.20;;
56075;SDS011;41951;49.022;12.066;2023-05-07T04:08:16;10.27;;;6.70;;
56075;SDS011;41951;49.022;12.066;2023-05-07T04:10:41;9.18;;;5.90;;
56075;SDS011;41951;49.022;12.066;2023-05-07T04:13:07;8.75;;;5.82;;
56075;SDS011;41951;49.022;12.066;2023-05-07T04:15:32;9.35;;;5.43;;
56075;SDS011;41951;49.022;12.066;2023-05-07T04:17:58;10.02;;;6.38;;
56075;SDS011;41951;49.022;12.066;2023-05-07T04:20:23;13.55;;;6.30;;
56075;SDS011;41951;49.022;12.066;2023-05-07T04:22:49;8.70;;;6.95;;
56075;SDS011;41951;49.022;12.066;2023-05-07T04:25:15;10.32;;;6.90;;
56075;SDS011;41951;49.022;12.066;2023-05-07T04:27:41;11.93;;;7.78;;
56075;SDS011;41951;49.022;12.066;2023-05-07T04:30:07;10.98;;;7.07;;
56075;SDS011;41951;49.022;12.066;2023-05-07T04:32:33;11.90;;;7.18;;
56075;SDS011;41951;49.022;12.066;2023-05-07T04:34:58;10.32;;;6.95;;
56075;SDS011;41951;49.022;12.066;2023-05-07T04:37:25;10.35;;;6.78;;
56075;SDS011;41951;49.022;12.066;2023-05-07T04:39:51;10.57;;;6.78;;
56075;SDS011;41951;49.022;12.066;2023-05-07T04:42:17;9.45;;;7.05;;
56075;SDS011;41951;49.022;12.066;2023-05-07T04:44:43;9.60;;;6.72;;
56075;SDS011;41951;49.022;12.066;2023-05-07T04:47:10;10.02;;;7.43;;
56075;SDS011;41951;49.022;12.066;2023-05-07T04:49:36;11.50;;;7.43;;
56075;SDS011;41951;49.022;12.066;2023-05-07T04:52:03;10.38;;;7.88;;
56075;SDS011;41951;49.022;12.066;2023-05-07T04:54:28;9.63;;;7.50;;
56075;SDS011;41951;49.022;12.066;2023-05-07T04:56:54;8.98;;;7.60;;
56075;SDS011;41951;49.022;12.066;2023-05-07T04:59:20;10.80;;;6.93;;
56075;SDS011;41951;49.022;12.066;2023-05-07T05:01:46;10.27;;;6.38;;
56075;SDS011;41951;49.022;12.066;2023-05-07T05:04:11;9.48;;;7.35;;
56075;SDS011;41951;49.022;12.066;2023-05-07T05:06:38;10.45;;;7.30;;
56075;SDS011;41951;49.022;12.066;2023-05-07T05:09:03;9.18;;;7.32;;
56075;SDS011;41951;49.022;12.066;2023-05-07T05:11:30;8.70;;;7.10;;
56075;SDS011;41951;49.022;12.066;2023-05-07T05:13:56;9.80;;;7.13;;
56075;SDS011;41951;49.022;12.066;2023-05-07T05:16:21;14.82;;;7.90;;
56075;SDS011;41951;49.022;12.066;2023-05-07T05:18:47;9.65;;;6.90;;
56075;SDS011;41951;49.022;12.066;2023-05-07T05:21:12;11.43;;;7.63;;
56075;SDS011;41951;49.022;12.066;2023-05-07T05:23:38;11.45;;;7.53;;
56075;SDS011;41951;49.022;12.066;2023-05-07T05:26:04;10.07;;;7.43;;
56075;SDS011;41951;49.022;12.066;2023-05-07T05:28:29;11.05;;;6.82;;
56075;SDS011;41951;49.022;12.066;2023-05-07T05:30:55;10.82;;;7.63;;
56075;SDS011;41951;49.022;12.066;2023-05-07T05:33:20;11.30;;;7.22;;
56075;SDS011;41951;49.022;12.066;2023-05-07T05:35:46;10.27;;;7.03;;
56075;SDS011;41951;49.022;12.066;2023-05-07T05:38:11;10.45;;;7.38;;
56075;SDS011;41951;49.022;12.066;2023-05-07T05:40:37;8.70;;;6.57;;
56075;SDS011;41951;49.022;12.066;2023-05-07T05:43:03;8.75;;;6.50;;
56075;SDS011;41951;49.022;12.066;2023-05-07T05:45:29;9.68;;;7.32;;
56075;SDS011;41951;49.022;12.066;2023-05-07T05:47:55;11.77;;;7.30;;
56075;SDS011;41951;49.022;12.066;2023-05-07T05:50:21;10.63;;;7.18;;
56075;SDS011;41951;49.022;12.066;2023-05-07T05:52:47;15.65;;;7.65;;
56075;SDS011;41951;49.022;12.066;2023-05-07T05:55:13;11.43;;;7.68;;
56075;SDS011;41951;49.022;12.066;2023-05-07T05:57:38;8.25;;;6.65;;
56075;SDS011;41951;49.022;12.066;2023-05-07T06:00:05;9.95;;;6.75;;
56075;SDS011;41951;49.022;12.066;2023-05-07T06:02:31;12.27;;;7.60;;
56075;SDS011;41951;49.022;12.066;2023-05-07T06:04:57;10.07;;;7.40;;
56075;SDS011;41951;49.022;12.066;2023-05-07T06:07:22;8.38;;;6.47;;
56075;SDS011;41951;49.022;12.066;2023-05-07T06:09:48;7.68;;;6.07;;
56075;SDS011;41951;49.022;12.066;2023-05-07T06:12:13;10.10;;;7.05;;
56075;SDS011;41951;49.022;12.066;2023-05-07T06:14:39;9.30;;;6.63;;
56075;SDS011;41951;49.022;12.066;2023-05-07T06:17:05;8.55;;;6.80;;
56075;SDS011;41951;49.022;12.066;2023-05-07T06:19:31;25.52;;;15.80;;
56075;SDS011;41951;49.022;12.066;2023-05-07T06:21:57;9.48;;;6.63;;
56075;SDS011;41951;49.022;12.066;2023-05-07T06:24:23;10.43;;;6.93;;
56075;SDS011;41951;49.022;12.066;2023-05-07T06:26:49;8.80;;;6.35;;
56075;SDS011;41951;49.022;12.066;2023-05-07T06:29:15;10.43;;;7.00;;
56075;SDS011;41951;49.022;12.066;2023-05-07T06:31:40;9.10;;;6.80;;
56075;SDS011;41951;49.022;12.066;2023-05-07T06:34:06;10.93;;;6.88;;
56075;SDS011;41951;49.022;12.066;2023-05-07T06:36:32;8.55;;;6.18;;
56075;SDS011;41951;49.022;12.066;2023-05-07T06:38:57;7.82;;;6.40;;
56075;SDS011;41951;49.022;12.066;2023-05-07T06:41:23;7.97;;;5.50;;
56075;SDS011;41951;49.022;12.066;2023-05-07T06:43:49;10.75;;;6.57;;
56075;SDS011;41951;49.022;12.066;2023-05-07T06:46:14;9.77;;;5.82;;
56075;SDS011;41951;49.022;12.066;2023-05-07T06:48:40;9.00;;;6.10;;
56075;SDS011;41951;49.022;12.066;2023-05-07T06:51:06;11.15;;;5.97;;
56075;SDS011;41951;49.022;12.066;2023-05-07T06:53:31;9.50;;;6.70;;
56075;SDS011;41951;49.022;12.066;2023-05-07T06:55:57;7.97;;;5.90;;
56075;SDS011;41951;49.022;12.066;2023-05-07T06:58:22;8.70;;;6.10;;
56075;SDS011;41951;49.022;12.066;2023-05-07T07:00:48;8.13;;;5.53;;
56075;SDS011;41951;49.022;12.066;2023-05-07T07:03:13;8.02;;;5.80;;
56075;SDS011;41951;49.022;12.066;2023-05-07T07:05:42;9.20;;;5.93;;
56075;SDS011;41951;49.022;12.066;2023-05-07T07:08:08;9.48;;;5.63;;
56075;SDS011;41951;49.022;12.066;2023-05-07T07:10:34;8.48;;;5.88;;
56075;SDS011;41951;49.022;12.066;2023-05-07T07:13:00;8.77;;;5.93;;
56075;SDS011;41951;49.022;12.066;2023-05-07T07:15:26;11.25;;;6.10;;
56075;SDS011;41951;49.022;12.066;2023-05-07T07:17:51;13.25;;;10.43;;
56075;SDS011;41951;49.022;12.066;2023-05-07T07:20:17;10.80;;;7.30;;
56075;SDS011;41951;49.022;12.066;2023-05-07T07:22:42;9.88;;;7.30;;
56075;SDS011;41951;49.022;12.066;2023-05-07T07:25:08;8.85;;;6.10;;
56075;SDS011;41951;49.022;12.066;2023-05-07T07:27:34;8.82;;;5.72;;
56075;SDS011;41951;49.022;12.066;2023-05-07T07:30:00;8.00;;;5.75;;
56075;SDS011;41951;49.022;12.066;2023-05-07T07:32:26;9.82;;;6.93;;
56075;SDS011;41951;49.022;12.066;2023-05-07T07:34:52;11.00;;;6.93;;
56075;SDS011;41951;49.022;12.066;2023-05-07T07:37:17;9.05;;;5.85;;
56075;SDS011;41951;49.022;12.066;2023-05-07T07:39:43;7.63;;;5.60;;
56075;SDS011;41951;49.022;12.066;2023-05-07T07:42:08;8.73;;;5.82;;
56075;SDS011;41951;49.022;12.066;2023-05-07T07:44:34;8.15;;;5.43;;
56075;SDS011;41951;49.022;12.066;2023-05-07T07:46:59;8.80;;;5.05;;
56075;SDS011;41951;49.022;12.066;2023-05-07T07:49:26;7.65;;;5.72;;
56075;SDS011;41951;49.022;12.066;2023-05-07T07:51:51;7.45;;;5.70;;
56075;SDS011;41951;49.022;12.066;2023-05-07T07:54:17;7.82;;;5.63;;
56075;SDS011;41951;49.022;12.066;2023-05-07T07:56:43;8.45;;;5.75;;
56075;SDS011;41951;49.022;12.066;2023-05-07T07:59:08;8.45;;;6.35;;
56075;SDS011;41951;49.022;12.066;2023-05-07T08:01:34;9.13;;;5.85;;
56075;SDS011;41951;49.022;12.066;2023-05-07T08:04:00;8.30;;;6.20;;
56075;SDS011;41951;49.022;12.066;2023-05-07T08:06:27;9.73;;;5.75;;
56075;SDS011;41951;49.022;12.066;2023-05-07T08:08:53;9.15;;;6.70;;
56075;SDS011;41951;49.022;12.066;2023-05-07T08:11:19;7.20;;;5.22;;
56075;SDS011;41951;49.022;12.066;2023-05-07T08:13:46;7.60;;;5.50;;
56075;SDS011;41951;49.022;12.066;2023-05-07T08:16:12;7.47;;;5.38;;
56075;SDS011;41951;49.022;12.066;2023-05-07T08:18:37;9.40;;;5.80;;
56075;SDS011;41951;49.022;12.066;2023-05-07T08:21:03;9.02;;;5.50;;
56075;SDS011;41951;49.022;12.066;2023-05-07T08:23:29;6.60;;;5.22;;
56075;SDS011;41951;49.022;12.066;2023-05-07T08:25:55;6.20;;;4.80;;
56075;SDS011;41951;49.022;12.066;2023-05-07T08:28:20;8.63;;;5.53;;
56075;SDS011;41951;49.022;12.066;2023-05-07T08:30:46;8.05;;;5.78;;
56075;SDS011;41951;49.022;12.066;2023-05-07T08:33:12;6.88;;;5.07;;
56075;SDS011;41951;49.022;12.066;2023-05-07T08:35:38;8.02;;;5.40;;
56075;SDS011;41951;49.022;12.066;2023-05-07T08:38:03;9.95;;;6.50;;
56075;SDS011;41951;49.022;12.066;2023-05-07T08:40:29;6.97;;;5.15;;
56075;SDS011;41951;49.022;12.066;2023-05-07T08:43:01;8.50;;;5.25;;
56075;SDS011;41951;49.022;12.066;2023-05-07T08:45:27;6.82;;;4.72;;
56075;SDS011;41951;49.022;12.066;2023-05-07T08:47:58;7.90;;;5.25;;
56075;SDS011;41951;49.022;12.066;2023-05-07T08:50:27;7.90;;;5.05;;
56075;SDS011;41951;49.022;12.066;2023-05-07T08:52:53;6.88;;;5.13;;
56075;SDS011;41951;49.022;12.066;2023-05-07T08:55:19;7.85;;;5.45;;
56075;SDS011;41951;49.022;12.066;2023-05-07T08:57:45;8.27;;;5.60;;
56075;SDS011;41951;49.022;12.066;2023-05-07T09:00:12;8.65;;;5.93;;
56075;SDS011;41951;49.022;12.066;2023-05-07T09:02:38;9.85;;;5.60;;
56075;SDS011;41951;49.022;12.066;2023-05-07T09:05:03;8.75;;;5.25;;
56075;SDS011;41951;49.022;12.066;2023-05-07T09:07:30;6.13;;;5.15;;
56075;SDS011;41951;49.022;12.066;2023-05-07T09:09:56;7.15;;;5.30;;
56075;SDS011;41951;49.022;12.066;2023-05-07T09:12:24;8.38;;;5.40;;
56075;SDS011;41951;49.022;12.066;2023-05-07T09:14:50;7.28;;;6.03;;
56075;SDS011;41951;49.022;12.066;2023-05-07T09:17:16;7.30;;;5.50;;
56075;SDS011;41951;49.022;12.066;2023-05-07T09:19:43;8.10;;;5.78;;
56075;SDS011;41951;49.022;12.066;2023-05-07T09:22:10;7.13;;;5.72;;
56075;SDS011;41951;49.022;12.066;2023-05-07T09:24:36;7.80;;;4.78;;
56075;SDS011;41951;49.022;12.066;2023-05-07T09:27:05;9.63;;;4.97;;
56075;SDS011;41951;49.022;12.066;2023-05-07T09:29:33;7.00;;;5.30;;
56075;SDS011;41951;49.022;12.066;2023-05-07T09:32:02;6.30;;;4.97;;
56075;SDS011;41951;49.022;12.066;2023-05-07T09:34:30;7.15;;;5.00;;
56075;SDS011;41951;49.022;12.066;2023-05-07T09:36:55;6.45;;;4.90;;
56075;SDS011;41951;49.022;12.066;2023-05-07T09:39:23;6.32;;;4.50;;
56075;SDS011;41951;49.022;12.066;2023-05-07T09:41:49;6.72;;;4.72;;
56075;SDS011;41951;49.022;12.066;2023-05-07T09:44:17;5.97;;;4.93;;
56075;SDS011;41951;49.022;12.066;2023-05-07T09:46:43;8.00;;;5.50;;
56075;SDS011;41951;49.022;12.066;2023-05-07T09:49:12;7.30;;;5.05;;
56075;SDS011;41951;49.022;12.066;2023-05-07T09:51:50;7.70;;;4.18;;
56075;SDS011;41951;49.022;12.066;2023-05-07T09:56:46;6.80;;;4.70;;
56075;SDS011;41951;49.022;12.066;2023-05-07T09:59:14;6.15;;;5.07;;
56075;SDS011;41951;49.022;12.066;2023-05-07T10:01:41;6.13;;;4.75;;
56075;SDS011;41951;49.022;12.066;2023-05-07T10:04:08;11.52;;;5.70;;
56075;SDS011;41951;49.022;12.066;2023-05-07T10:06:35;7.25;;;5.10;;
56075;SDS011;41951;49.022;12.066;2023-05-07T10:09:02;7.45;;;4.55;;
56075;SDS011;41951;49.022;12.066;2023-05-07T10:11:28;6.47;;;4.90;;
56075;SDS011;41951;49.022;12.066;2023-05-07T10:13:53;9.63;;;7.38;;
56075;SDS011;41951;49.022;12.066;2023-05-07T10:16:20;8.07;;;5.22;;
56075;SDS011;41951;49.022;12.066;2023-05-07T10:18:46;15.10;;;10.43;;
56075;SDS011;41951;49.022;12.066;2023-05-07T10:21:17;8.68;;;5.68;;
56075;SDS011;41951;49.022;12.066;2023-05-07T10:23:51;9.43;;;5.93;;
56075;SDS011;41951;49.022;12.066;2023-05-07T10:26:23;8.50;;;5.60;;
56075;SDS011;41951;49.022;12.066;2023-05-07T10:28:51;10.55;;;7.90;;
56075;SDS011;41951;49.022;12.066;2023-05-07T10:34:19;8.63;;;6.05;;
56075;SDS011;41951;49.022;12.066;2023-05-07T10:39:14;8.27;;;5.13;;
56075;SDS011;41951;49.022;12.066;2023-05-07T10:41:40;6.53;;;5.07;;
56075;SDS011;41951;49.022;12.066;2023-05-07T10:44:06;7.75;;;4.80;;
56075;SDS011;41951;49.022;12.066;2023-05-07T10:46:31;7.40;;;5.10;;
56075;SDS011;41951;49.022;12.066;2023-05-07T10:51:25;7.95;;;4.85;;
56075;SDS011;41951;49.022;12.066;2023-05-07T10:56:42;5.57;;;4.28;;
56075;SDS011;41951;49.022;12.066;2023-05-07T11:01:56;6.80;;;4.80;;
56075;SDS011;41951;49.022;12.066;2023-05-07T11:04:31;7.63;;;4.65;;
56075;SDS011;41951;49.022;12.066;2023-05-07T11:07:11;7.60;;;4.78;;
56075;SDS011;41951;49.022;12.066;2023-05-07T11:10:01;6.78;;;4.85;;
56075;SDS011;41951;49.022;12.066;2023-05-07T11:15:11;6.45;;;4.40;;
56075;SDS011;41951;49.022;12.066;2023-05-07T11:17:59;5.53;;;4.20;;
56075;SDS011;41951;49.022;12.066;2023-05-07T11:26:00;19.13;;;14.38;;
56075;SDS011;41951;49.022;12.066;2023-05-07T11:28:36;7.60;;;4.95;;
56075;SDS011;41951;49.022;12.066;2023-05-07T11:31:02;5.88;;;4.05;;
56075;SDS011;41951;49.022;12.066;2023-05-07T11:33:31;5.68;;;4.22;;
56075;SDS011;41951;49.022;12.066;2023-05-07T11:35:57;5.47;;;3.72;;
56075;SDS011;41951;49.022;12.066;2023-05-07T11:38:25;6.97;;;3.95;;
56075;SDS011;41951;49.022;12.066;2023-05-07T11:40:51;5.80;;;4.15;;
56075;SDS011;41951;49.022;12.066;2023-05-07T11:43:18;5.40;;;4.05;;
56075;SDS011;41951;49.022;12.066;2023-05-07T11:45:44;5.18;;;4.25;;
56075;SDS011;41951;49.022;12.066;2023-05-07T11:48:11;11.63;;;5.00;;
56075;SDS011;41951;49.022;12.066;2023-05-07T11:50:49;8.93;;;5.05;;
56075;SDS011;41951;49.022;12.066;2023-05-07T11:53:16;7.18;;;4.47;;
56075;SDS011;41951;49.022;12.066;2023-05-07T11:55:42;7.63;;;5.00;;
56075;SDS011;41951;49.022;12.066;2023-05-07T11:58:10;10.77;;;4.97;;
56075;SDS011;41951;49.022;12.066;2023-05-07T12:00:37;6.45;;;4.32;;
56075;SDS011;41951;49.022;12.066;2023-05-07T12:03:03;5.70;;;4.43;;
56075;SDS011;41951;49.022;12.066;2023-05-07T12:05:30;8.25;;;4.70;;
56075;SDS011;41951;49.022;12.066;2023-05-07T12:07:56;7.88;;;4.38;;
56075;SDS011;41951;49.022;12.066;2023-05-07T12:10:22;5.75;;;4.35;;
56075;SDS011;41951;49.022;12.066;2023-05-07T12:12:50;7.63;;;5.20;;
56075;SDS011;41951;49.022;12.066;2023-05-07T12:15:16;8.95;;;5.43;;
56075;SDS011;41951;49.022;12.066;2023-05-07T12:17:42;6.35;;;4.38;;
56075;SDS011;41951;49.022;12.066;2023-05-07T12:20:09;4.80;;;3.75;;
56075;SDS011;41951;49.022;12.066;2023-05-07T12:22:35;4.63;;;3.67;;
56075;SDS011;41951;49.022;12.066;2023-05-07T12:25:01;7.50;;;4.00;;
56075;SDS011;41951;49.022;12.066;2023-05-07T12:27:27;6.10;;;4.05;;
56075;SDS011;41951;49.022;12.066;2023-05-07T12:29:53;7.78;;;5.65;;
56075;SDS011;41951;49.022;12.066;2023-05-07T12:32:19;7.05;;;4.22;;
56075;SDS011;41951;49.022;12.066;2023-05-07T12:34:46;5.03;;;3.85;;
56075;SDS011;41951;49.022;12.066;2023-05-07T12:37:22;5.63;;;3.65;;
56075;SDS011;41951;49.022;12.066;2023-05-07T12:40:02;5.53;;;3.40;;
56075;SDS011;41951;49.022;12.066;2023-05-07T12:42:33;6.10;;;3.90;;
56075;SDS011;41951;49.022;12.066;2023-05-07T12:45:07;7.20;;;3.30;;
56075;SDS011;41951;49.022;12.066;2023-05-07T12:47:33;6.15;;;3.35;;
56075;SDS011;41951;49.022;12.066;2023-05-07T12:49:59;5.07;;;3.38;;
56075;SDS011;41951;49.022;12.066;2023-05-07T12:52:25;5.07;;;3.13;;
56075;SDS011;41951;49.022;12.066;2023-05-07T12:54:51;6.28;;;3.05;;
56075;SDS011;41951;49.022;12.066;2023-05-07T12:57:18;4.97;;;2.97;;
56075;SDS011;41951;49.022;12.066;2023-05-07T12:59:45;4.40;;;2.95;;
56075;SDS011;41951;49.022;12.066;2023-05-07T13:02:11;5.35;;;3.15;;
56075;SDS011;41951;49.022;12.066;2023-05-07T13:04:39;7.18;;;3.45;;
56075;SDS011;41951;49.022;12.066;2023-05-07T13:07:05;4.43;;;2.95;;
56075;SDS011;41951;49.022;12.066;2023-05-07T13:09:30;5.00;;;3.08;;
56075;SDS011;41951;49.022;12.066;2023-05-07T13:11:56;4.78;;;2.95;;
56075;SDS011;41951;49.022;12.066;2023-05-07T13:14:26;5.03;;;2.90;;
56075;SDS011;41951;49.022;12.066;2023-05-07T13:16:51;4.57;;;2.78;;
56075;SDS011;41951;49.022;12.066;2023-05-07T13:19:17;4.28;;;2.92;;
56075;SDS011;41951;49.022;12.066;2023-05-07T13:21:42;7.10;;;3.00;;
56075;SDS011;41951;49.022;12.066;2023-05-07T13:24:15;4.40;;;3.03;;
56075;SDS011;41951;49.022;12.066;2023-05-07T13:26:41;4.97;;;3.20;;
56075;SDS011;41951;49.022;12.066;2023-05-07T13:29:07;5.85;;;2.90;;
56075;SDS011;41951;49.022;12.066;2023-05-07T13:31:32;7.18;;;3.05;;
56075;SDS011;41951;49.022;12.066;2023-05-07T13:33:58;4.72;;;2.83;;
56075;SDS011;41951;49.022;12.066;2023-05-07T13:36:24;3.70;;;2.80;;
56075;SDS011;41951;49.022;12.066;2023-05-07T13:38:50;5.05;;;2.97;;
56075;SDS011;41951;49.022;12.066;2023-05-07T13:41:16;4.20;;;3.00;;
56075;SDS011;41951;49.022;12.066;2023-05-07T13:43:42;3.78;;;2.47;;
56075;SDS011;41951;49.022;12.066;2023-05-07T13:46:07;3.50;;;2.38;;
56075;SDS011;41951;49.022;12.066;2023-05-07T13:48:33;4.00;;;2.55;;
56075;SDS011;41951;49.022;12.066;2023-05-07T13:50:58;3.60;;;2.33;;
56075;SDS011;41951;49.022;12.066;2023-05-07T13:53:24;4.82;;;2.55;;
56075;SDS011;41951;49.022;12.066;2023-05-07T13:55:50;3.95;;;2.60;;
56075;SDS011;41951;49.022;12.066;2023-05-07T13:58:15;4.88;;;2.60;;
56075;SDS011;41951;49.022;12.066;2023-05-07T14:00:41;4.82;;;2.67;;
56075;SDS011;41951;49.022;12.066;2023-05-07T14:03:06;3.83;;;2.10;;
56075;SDS011;41951;49.022;12.066;2023-05-07T14:05:32;4.55;;;2.75;;
56075;SDS011;41951;49.022;12.066;2023-05-07T14:07:58;3.42;;;2.05;;
56075;SDS011;41951;49.022;12.066;2023-05-07T14:10:23;3.50;;;2.00;;
56075;SDS011;41951;49.022;12.066;2023-05-07T14:12:49;4.00;;;2.42;;
56075;SDS011;41951;49.022;12.066;2023-05-07T14:15:15;3.25;;;2.00;;
56075;SDS011;41951;49.022;12.066;2023-05-07T14:17:41;4.30;;;2.15;;
56075;SDS011;41951;49.022;12.066;2023-05-07T14:20:08;3.13;;;1.75;;
56075;SDS011;41951;49.022;12.066;2023-05-07T14:22:34;4.15;;;2.40;;
56075;SDS011;41951;49.022;12.066;2023-05-07T14:25:00;4.47;;;2.60;;
56075;SDS011;41951;49.022;12.066;2023-05-07T14:27:25;5.95;;;3.10;;
56075;SDS011;41951;49.022;12.066;2023-05-07T14:29:51;3.85;;;2.30;;
56075;SDS011;41951;49.022;12.066;2023-05-07T14:32:17;4.03;;;2.35;;
56075;SDS011;41951;49.022;12.066;2023-05-07T14:34:43;3.90;;;2.50;;
56075;SDS011;41951;49.022;12.066;2023-05-07T14:37:09;4.90;;;2.40;;
56075;SDS011;41951;49.022;12.066;2023-05-07T14:39:35;7.78;;;2.75;;
56075;SDS011;41951;49.022;12.066;2023-05-07T14:42:00;3.53;;;2.55;;
56075;SDS011;41951;49.022;12.066;2023-05-07T14:44:27;3.60;;;2.30;;
56075;SDS011;41951;49.022;12.066;2023-05-07T14:46:52;3.95;;;2.60;;
56075;SDS011;41951;49.022;12.066;2023-05-07T14:49:18;3.70;;;2.70;;
56075;SDS011;41951;49.022;12.066;2023-05-07T14:51:44;5.32;;;2.42;;
56075;SDS011;41951;49.022;12.066;2023-05-07T14:54:11;3.20;;;2.25;;